Time;durP1;ratioP1;P1;durP2;ratioP2;P2;SDS_P1;SDS_P2;PMS_P1;PMS_P2;Temp;Humidity;BMP_temperature;BMP_pressure;BME280_temperature;BME280_humidity;BME280_pressure;Samples;Min_cycle;Max_cycle;Signal;HPM_P1;HPM_P2
2023/12/09 00:01:42;;;;;;;80.88;23.52;;;;;;;6.77;100.00;101131.84;5100634;27;20842;-73
2023/12/09 00:04:10;;;;;;;64.00;21.17;;;;;;;6.73;100.00;101125.84;5094032;27;20213;-74
2023/12/09 00:06:36;;;;;;;69.60;23.27;;;;;;;6.69;100.00;101126.03;5110181;27;20032;-73
2023/12/09 00:09:05;;;;;;;74.57;22.40;;;;;;;6.68;100.00;101122.53;5106538;27;20054;-75
2023/12/09 00:11:33;;;;;;;73.13;22.73;;;;;;;6.71;100.00;101127.66;5098143;27;20046;-74
2023/12/09 00:14:03;;;;;;;70.30;23.27;;;;;;;6.68;100.00;101126.97;5084138;28;20032;-74
2023/12/09 00:16:30;;;;;;;71.75;22.63;;;;;;;6.70;100.00;101123.31;5106554;27;20028;-74
2023/12/09 00:19:00;;;;;;;73.63;21.70;;;;;;;6.63;100.00;101132.44;5106353;27;20036;-73
2023/12/09 00:21:26;;;;;;;76.55;23.52;;;;;;;6.62;100.00;101140.44;5101574;27;20078;-73
2023/12/09 00:23:51;;;;;;;78.25;24.05;;;;;;;6.67;100.00;101119.91;5098208;27;20503;-73
2023/12/09 00:26:17;;;;;;;83.93;23.85;;;;;;;6.63;100.00;101121.84;5102948;27;20039;-72
2023/12/09 00:28:42;;;;;;;79.53;24.45;;;;;;;6.62;100.00;101120.09;5110239;27;20033;-73
2023/12/09 00:31:08;;;;;;;76.82;23.95;;;;;;;6.62;100.00;101127.19;5098139;27;20595;-73
2023/12/09 00:33:35;;;;;;;78.43;23.02;;;;;;;6.68;100.00;101117.22;5093912;27;20032;-72
2023/12/09 00:36:02;;;;;;;75.78;23.55;;;;;;;6.63;100.00;101126.28;5103158;27;20039;-72
2023/12/09 00:38:28;;;;;;;73.28;22.17;;;;;;;6.61;100.00;101114.88;5082734;27;20051;-72
2023/12/09 00:40:53;;;;;;;76.95;22.30;;;;;;;6.66;100.00;101126.16;5099471;27;20791;-71
2023/12/09 00:43:19;;;;;;;78.13;23.83;;;;;;;6.62;100.00;101121.91;5102428;27;20557;-73
2023/12/09 00:45:44;;;;;;;81.38;22.80;;;;;;;6.60;100.00;101129.06;5110527;27;20363;-72
2023/12/09 00:48:10;;;;;;;83.18;22.83;;;;;;;6.66;100.00;101132.31;5100544;27;20032;-73
2023/12/09 00:50:36;;;;;;;84.82;22.15;;;;;;;6.64;100.00;101125.38;5082643;27;20116;-73
2023/12/09 00:53:07;;;;;;;63.17;20.63;;;;;;;6.63;100.00;101124.50;5106353;27;20027;-72
2023/12/09 00:55:33;;;;;;;74.20;21.85;;;;;;;6.57;100.00;101132.69;5106006;27;20035;-72
2023/12/09 00:57:58;;;;;;;90.38;23.10;;;;;;;6.58;100.00;101131.78;5112103;27;20062;-73
2023/12/09 01:00:25;;;;;;;70.30;21.42;;;;;;;6.57;100.00;101140.63;5107504;27;20040;-72
2023/12/09 01:02:51;;;;;;;82.63;23.05;;;;;;;6.54;100.00;101135.47;5105035;27;20089;-74
2023/12/09 01:05:17;;;;;;;65.57;21.42;;;;;;;6.51;100.00;101145.34;5099723;27;20063;-74
2023/12/09 01:07:43;;;;;;;80.75;22.17;;;;;;;6.43;100.00;101143.88;5112154;27;20126;-74
2023/12/09 01:10:08;;;;;;;76.50;22.60;;;;;;;6.40;100.00;101151.09;5107607;27;20553;-74
2023/12/09 01:12:34;;;;;;;68.32;22.23;;;;;;;6.43;100.00;101146.53;5087052;27;20097;-74
2023/12/09 01:14:59;;;;;;;73.90;21.60;;;;;;;6.45;100.00;101144.66;5107716;27;20031;-73
2023/12/09 01:17:25;;;;;;;81.10;22.63;;;;;;;6.49;100.00;101146.28;5103669;27;20028;-74
2023/12/09 01:19:51;;;;;;;74.57;23.00;;;;;;;6.49;100.00;101151.56;5101553;27;20461;-73
2023/12/09 01:22:16;;;;;;;80.05;23.40;;;;;;;6.48;100.00;101147.19;5107651;27;21187;-73
2023/12/09 01:24:42;;;;;;;82.40;24.02;;;;;;;6.37;100.00;101144.09;5085107;27;20051;-73
2023/12/09 01:27:08;;;;;;;89.43;25.17;;;;;;;6.49;100.00;101140.13;5092588;27;20036;-74
2023/12/09 01:29:36;;;;;;;83.03;21.90;;;;;;;6.38;100.00;101137.06;5104551;27;20060;-74
2023/12/09 01:32:06;;;;;;;79.95;23.15;;;;;;;6.44;100.00;101142.94;5105620;27;20036;-73
2023/12/09 01:34:34;;;;;;;77.63;21.02;;;;;;;6.40;100.00;101136.06;5109910;27;20039;-74
2023/12/09 01:36:59;;;;;;;75.53;21.73;;;;;;;6.44;100.00;101140.31;5109659;27;20143;-74
2023/12/09 01:39:27;;;;;;;59.83;22.00;;;;;;;6.38;100.00;101137.06;5113033;27;20509;-73
2023/12/09 01:41:52;;;;;;;64.30;21.40;;;;;;;6.40;100.00;101136.06;5112310;27;20086;-74
2023/12/09 01:44:18;;;;;;;85.90;26.17;;;;;;;6.42;100.00;101135.97;5110944;27;20645;-74
2023/12/09 01:46:44;;;;;;;70.38;21.60;;;;;;;6.37;100.00;101130.88;5114357;27;20044;-72
2023/12/09 01:49:10;;;;;;;80.75;24.40;;;;;;;6.29;100.00;101134.78;5111805;27;20040;-72
2023/12/09 01:51:38;;;;;;;85.05;24.20;;;;;;;6.32;100.00;101129.34;5092924;27;20567;-74
2023/12/09 01:54:07;;;;;;;84.20;22.83;;;;;;;6.33;100.00;101137.25;5115914;27;20035;-73
2023/12/09 01:56:32;;;;;;;73.50;23.25;;;;;;;6.31;100.00;101140.88;5093489;27;20031;-73
2023/12/09 01:58:58;;;;;;;78.85;23.50;;;;;;;6.23;100.00;101135.91;5117583;27;20079;-74
2023/12/09 02:01:25;;;;;;;76.78;24.10;;;;;;;6.17;100.00;101133.47;5110289;27;20549;-73
2023/12/09 02:03:52;;;;;;;68.47;22.58;;;;;;;6.18;100.00;101138.72;5110392;27;20078;-72
2023/12/09 02:06:18;;;;;;;79.85;24.98;;;;;;;6.17;100.00;101128.19;5104824;27;20858;-73
2023/12/09 02:08:43;;;;;;;77.35;21.05;;;;;;;6.15;100.00;101124.75;5095264;27;20039;-73
2023/12/09 02:11:35;;;;;;;66.18;21.83;;;;;;;6.11;100.00;101129.28;5111027;27;20043;-73
2023/12/09 02:14:07;;;;;;;68.63;22.15;;;;;;;6.14;100.00;101126.53;5112876;27;20036;-73
2023/12/09 02:16:56;;;;;;;78.75;22.13;;;;;;;6.13;100.00;101116.00;5118146;27;21194;-73
2023/12/09 02:19:22;;;;;;;77.10;23.10;;;;;;;6.11;100.00;101121.34;5108029;27;20208;-72
2023/12/09 02:22:08;;;;;;;73.07;24.90;;;;;;;6.16;100.00;101105.28;5096499;27;20583;-73
2023/12/09 02:24:35;;;;;;;89.47;23.77;;;;;;;6.10;100.00;101103.75;5093795;27;21044;-73
2023/12/09 02:27:15;;;;;;;83.05;24.63;;;;;;;6.11;100.00;101099.31;5100195;27;20067;-73
2023/12/09 02:30:04;;;;;;;92.60;23.25;;;;;;;6.19;100.00;101097.22;5105569;27;20044;-72
2023/12/09 02:32:41;;;;;;;75.63;22.45;;;;;;;6.29;100.00;101103.00;5111811;27;20588;-72
2023/12/09 02:35:10;;;;;;;95.45;25.95;;;;;;;6.35;100.00;101100.09;5113210;27;20031;-72
2023/12/09 02:37:38;;;;;;;87.53;25.83;;;;;;;6.34;100.00;101101.03;5111399;27;20146;-72
2023/12/09 02:40:09;;;;;;;86.68;24.67;;;;;;;6.33;100.00;101089.56;5101190;27;20155;-73
2023/12/09 02:42:42;;;;;;;86.90;24.95;;;;;;;6.26;100.00;101097.81;5094562;27;20024;-73
2023/12/09 02:45:07;;;;;;;;;;;;;;;6.26;100.00;101098.69;5102567;27;20117;-73
2023/12/09 02:47:33;;;;;;;92.65;23.00;;;;;;;6.09;100.00;101094.09;5097863;27;19946;-73
2023/12/09 02:49:59;;;;;;;80.75;24.45;;;;;;;6.06;100.00;101095.97;5116845;27;20666;-72
2023/12/09 02:52:24;;;;;;;76.53;22.73;;;;;;;6.08;100.00;101092.38;5107040;27;20715;-72
2023/12/09 02:54:50;;;;;;;78.82;21.95;;;;;;;6.04;100.00;101088.13;5106036;27;20074;-74
2023/12/09 02:57:16;;;;;;;79.07;23.58;;;;;;;6.00;100.00;101088.31;5109558;27;20023;-71
2023/12/09 02:59:41;;;;;;;90.32;23.70;;;;;;;5.92;100.00;101084.19;5108759;27;20500;-72
2023/12/09 03:02:07;;;;;;;81.63;22.77;;;;;;;5.90;100.00;101080.69;5111173;27;20074;-74
2023/12/09 03:04:34;;;;;;;90.60;24.95;;;;;;;5.80;100.00;101066.09;5112084;27;20032;-73
2023/12/09 03:07:00;;;;;;;102.00;25.83;;;;;;;5.88;100.00;101071.09;5092589;27;20086;-74
2023/12/09 03:09:28;;;;;;;91.57;24.70;;;;;;;5.79;100.00;101066.19;5091105;27;20077;-74
2023/12/09 03:11:54;;;;;;;80.50;24.35;;;;;;;5.77;100.00;101057.41;5105362;27;20028;-73
2023/12/09 03:14:22;;;;;;;74.00;22.52;;;;;;;5.73;100.00;101054.06;5105132;27;20882;-74
2023/12/09 03:16:47;;;;;;;87.38;24.95;;;;;;;5.72;100.00;101049.66;5093947;27;20043;-74
2023/12/09 03:19:13;;;;;;;97.28;24.25;;;;;;;5.72;100.00;101054.97;5090244;27;20780;-73
2023/12/09 03:21:38;;;;;;;82.00;22.83;;;;;;;5.75;100.00;101052.19;5103942;27;20036;-74
2023/12/09 03:24:10;;;;;;;86.50;23.60;;;;;;;5.70;100.00;101054.16;5086873;28;20032;-73
2023/12/09 03:26:35;;;;;;;102.10;23.63;;;;;;;5.63;100.00;101048.28;5101596;27;20121;-74
2023/12/09 03:29:06;;;;;;;82.25;21.70;;;;;;;5.69;100.00;101044.50;5084670;28;20042;-74
2023/12/09 03:31:41;;;;;;;81.53;20.67;;;;;;;5.62;100.00;101046.56;5091441;27;20040;-74
2023/12/09 03:34:06;;;;;;;86.43;22.95;;;;;;;5.55;100.00;101042.41;5093089;27;20242;-74
2023/12/09 03:36:37;;;;;;;80.20;23.52;;;;;;;5.63;100.00;101037.69;5112702;27;20080;-75
2023/12/09 03:39:06;;;;;;;80.95;22.55;;;;;;;5.60;100.00;101044.88;5100219;27;20040;-74
2023/12/09 03:41:33;;;;;;;88.63;23.27;;;;;;;5.53;100.00;101051.34;5104821;27;20144;-73
2023/12/09 03:44:04;;;;;;;76.60;21.95;;;;;;;5.49;100.00;101047.94;5106058;27;20055;-73
2023/12/09 03:46:32;;;;;;;77.03;21.73;;;;;;;5.52;100.00;101052.25;5085415;27;20093;-74
2023/12/09 03:48:58;;;;;;;80.60;22.77;;;;;;;5.53;100.00;101048.69;5106278;27;20032;-73
2023/12/09 03:51:23;;;;;;;82.10;21.90;;;;;;;5.52;100.00;101052.25;5105074;27;20754;-74
2023/12/09 03:53:49;;;;;;;82.60;21.17;;;;;;;5.52;100.00;101046.94;5112092;27;20951;-73
2023/12/09 03:56:17;;;;;;;77.38;21.90;;;;;;;5.51;100.00;101046.09;5095603;27;20040;-74
2023/12/09 03:58:43;;;;;;;87.05;20.88;;;;;;;5.50;100.00;101059.38;5101946;27;20688;-73
2023/12/09 04:01:08;;;;;;;75.25;18.77;;;;;;;5.56;100.00;101049.41;5111642;27;20044;-73
2023/12/09 04:03:35;;;;;;;114.63;25.27;;;;;;;5.63;100.00;101047.41;5077047;27;20032;-73
2023/12/09 04:06:06;;;;;;;85.50;23.33;;;;;;;5.66;100.00;101041.97;5111746;27;20036;-73
2023/12/09 04:08:35;;;;;;;63.97;20.85;;;;;;;5.75;100.00;101046.91;5106413;27;20043;-75
2023/12/09 04:11:04;;;;;;;73.05;19.15;;;;;;;5.80;100.00;101052.88;5112017;27;20119;-74
2023/12/09 04:13:35;;;;;;;69.95;17.60;;;;;;;5.93;100.00;101048.84;5091378;27;20089;-75
2023/12/09 04:16:21;;;;;;;85.82;22.38;;;;;;;5.98;100.00;101043.38;5091273;27;20136;-74
2023/12/09 04:18:47;;;;;;;81.47;20.75;;;;;;;6.08;100.00;101047.38;5098246;27;20040;-74
2023/12/09 04:21:15;;;;;;;79.70;21.83;;;;;;;6.02;100.00;101033.50;5110872;27;20042;-75
2023/12/09 04:23:41;;;;;;;79.95;21.42;;;;;;;6.05;100.00;101023.66;5093549;27;20085;-74
2023/12/09 04:26:06;;;;;;;74.35;19.77;;;;;;;6.17;100.00;101019.63;5110806;27;20116;-74
2023/12/09 04:28:32;;;;;;;63.75;18.95;;;;;;;6.18;100.00;101013.44;5108499;27;20032;-74
2023/12/09 04:30:58;;;;;;;76.50;19.52;;;;;;;6.18;100.00;101003.69;5110319;27;20204;-74
2023/12/09 04:33:23;;;;;;;74.35;19.23;;;;;;;6.14;100.00;100999.44;5110818;27;20036;-73
2023/12/09 04:35:49;;;;;;;65.50;18.67;;;;;;;6.23;100.00;101003.50;5108183;27;20031;-74
2023/12/09 04:38:14;;;;;;;66.10;16.98;;;;;;;6.22;100.00;100983.22;5111123;27;20032;-74
2023/12/09 04:40:42;;;;;;;57.97;17.17;;;;;;;6.17;100.00;100987.84;5100965;27;20054;-74
2023/12/09 04:43:07;;;;;;;62.13;18.60;;;;;;;6.12;100.00;100988.03;5106745;27;20039;-74
2023/12/09 04:45:33;;;;;;;62.40;16.27;;;;;;;6.09;100.00;100993.50;5106125;27;20040;-73
2023/12/09 04:47:58;;;;;;;60.75;18.00;;;;;;;6.07;100.00;100984.72;5093792;27;20178;-73
2023/12/09 04:50:24;;;;;;;68.97;16.77;;;;;;;5.98;100.00;100982.50;5105580;27;20565;-73
2023/12/09 04:52:49;;;;;;;71.05;17.70;;;;;;;5.98;100.00;100977.22;5093376;27;20085;-73
2023/12/09 04:55:15;;;;;;;57.50;17.67;;;;;;;5.92;100.00;100980.09;5099806;27;20047;-74
2023/12/09 04:57:41;;;;;;;59.05;17.20;;;;;;;5.99;100.00;100978.06;5100429;27;20040;-73
2023/12/09 05:00:10;;;;;;;64.20;18.00;;;;;;;6.04;100.00;100981.38;5082818;28;20044;-72
2023/12/09 05:02:37;;;;;;;62.03;17.52;;;;;;;6.03;100.00;100980.53;5106575;27;20094;-74
2023/12/09 05:05:05;;;;;;;57.22;16.80;;;;;;;6.10;100.00;100975.81;5109498;27;21138;-73
2023/12/09 05:07:34;;;;;;;77.47;18.02;;;;;;;6.03;100.00;100971.72;5102063;27;20039;-74
2023/12/09 05:10:06;;;;;;;59.72;15.63;;;;;;;6.08;100.00;100967.09;5105368;27;20028;-73
2023/12/09 05:12:35;;;;;;;64.90;17.85;;;;;;;6.07;100.00;100958.25;5108651;27;20062;-75
2023/12/09 05:15:04;;;;;;;66.35;17.70;;;;;;;5.96;100.00;100953.44;5087835;27;20039;-75
2023/12/09 05:17:38;;;;;;;63.10;16.48;;;;;;;5.90;100.00;100948.38;5091216;27;20047;-74
2023/12/09 05:20:08;;;;;;;57.22;15.60;;;;;;;5.80;100.00;100935.59;5091950;27;20827;-74
2023/12/09 05:22:33;;;;;;;60.30;14.13;;;;;;;5.82;100.00;100937.22;5100937;27;20036;-73
2023/12/09 05:24:59;;;;;;;54.13;15.32;;;;;;;5.83;100.00;100941.63;5110823;27;21105;-73
2023/12/09 05:27:24;;;;;;;56.47;15.85;;;;;;;5.75;100.00;100940.22;5097315;27;20157;-73
2023/12/09 05:29:50;;;;;;;57.05;16.83;;;;;;;5.74;100.00;100936.72;5104047;27;20043;-73
2023/12/09 05:32:16;;;;;;;60.75;16.38;;;;;;;5.70;100.00;100929.81;5079962;27;20085;-73
2023/12/09 05:34:41;;;;;;;48.78;15.10;;;;;;;5.68;100.00;100923.75;5092454;27;20152;-75
2023/12/09 05:37:07;;;;;;;74.57;16.30;;;;;;;5.57;100.00;100925.97;5106319;27;20854;-73
2023/12/09 05:39:32;;;;;;;55.95;16.98;;;;;;;5.51;100.00;100927.06;5079932;27;20934;-73
2023/12/09 05:41:59;;;;;;;78.15;17.13;;;;;;;5.55;100.00;100936.59;5091417;27;20038;-74
2023/12/09 05:44:24;;;;;;;59.08;16.13;;;;;;;5.57;100.00;100936.53;5109328;27;20039;-74
2023/12/09 05:46:50;;;;;;;65.60;17.35;;;;;;;5.53;100.00;100929.69;5089417;27;20035;-73
2023/12/09 05:49:16;;;;;;;56.63;15.82;;;;;;;5.50;100.00;100922.72;5105198;27;20188;-75
2023/12/09 05:51:42;;;;;;;48.08;15.15;;;;;;;5.49;100.00;100923.66;5101860;27;20598;-74
2023/12/09 05:54:08;;;;;;;55.53;14.35;;;;;;;5.51;100.00;100926.22;5108897;27;20478;-74
2023/12/09 05:56:33;;;;;;;58.83;15.18;;;;;;;5.54;100.00;100916.38;5082009;27;20039;-73
2023/12/09 05:58:59;;;;;;;50.25;14.10;;;;;;;5.52;100.00;100917.34;5102319;27;20733;-74
2023/12/09 06:01:24;;;;;;;53.85;15.80;;;;;;;5.48;100.00;100923.72;5065863;27;20024;-74
2023/12/09 06:03:50;;;;;;;54.78;15.55;;;;;;;5.49;100.00;100917.50;5107543;27;20040;-74
2023/12/09 06:06:16;;;;;;;52.60;15.15;;;;;;;5.48;100.00;100906.06;5107747;27;20846;-73
2023/12/09 06:08:41;;;;;;;60.30;16.42;;;;;;;5.45;100.00;100914.09;5099182;27;20028;-74
2023/12/09 06:11:07;;;;;;;73.60;16.40;;;;;;;5.45;100.00;100911.47;5108251;27;20042;-73
2023/12/09 06:13:33;;;;;;;48.03;13.65;;;;;;;5.46;100.00;100918.47;5092291;27;20101;-74
2023/12/09 06:15:58;;;;;;;54.58;14.68;;;;;;;5.45;100.00;100906.19;5101451;27;20756;-74
2023/12/09 06:18:25;;;;;;;58.38;13.27;;;;;;;5.43;100.00;100908.03;5108843;27;20082;-74
2023/12/09 06:20:50;;;;;;;48.70;14.02;;;;;;;5.44;100.00;100901.81;5110254;27;20043;-74
2023/12/09 06:23:16;;;;;;;52.95;12.38;;;;;;;5.49;100.00;100897.19;5104166;27;20032;-75
2023/12/09 06:25:41;;;;;;;48.40;12.85;;;;;;;5.54;100.00;100905.81;5087716;27;20139;-74
2023/12/09 06:28:07;;;;;;;48.55;11.90;;;;;;;5.54;100.00;100892.56;5107451;27;20028;-73
2023/12/09 06:30:33;;;;;;;40.65;11.45;;;;;;;5.51;100.00;100895.34;5104663;27;20043;-73
2023/12/09 06:32:58;;;;;;;40.92;11.55;;;;;;;5.57;100.00;100883.63;5104935;27;20043;-74
2023/12/09 06:35:24;;;;;;;53.78;11.60;;;;;;;5.54;100.00;100886.44;5109288;27;20227;-75
2023/12/09 06:37:49;;;;;;;42.58;12.70;;;;;;;5.50;100.00;100882.19;5089307;27;20440;-74
2023/12/09 06:40:15;;;;;;;52.70;12.25;;;;;;;5.54;100.00;100873.22;5089325;27;20060;-73
2023/12/09 06:42:41;;;;;;;54.03;11.45;;;;;;;5.58;100.00;100862.44;5091277;27;20115;-73
2023/12/09 06:45:07;;;;;;;46.50;11.13;;;;;;;5.52;100.00;100875.03;5111604;27;20515;-73
2023/12/09 06:47:35;;;;;;;51.25;11.68;;;;;;;5.55;100.00;100856.41;5113363;27;20081;-75
2023/12/09 06:50:08;;;;;;;50.90;12.00;;;;;;;5.57;100.00;100862.47;5090116;27;20109;-73
2023/12/09 06:52:34;;;;;;;35.88;10.60;;;;;;;5.61;100.00;100864.94;5111283;27;20066;-75
2023/12/09 06:54:59;;;;;;;40.17;11.55;;;;;;;5.61;100.00;100856.13;5111147;27;20077;-74
2023/12/09 06:57:27;;;;;;;37.85;9.68;;;;;;;5.59;100.00;100855.34;5113346;27;20062;-74
2023/12/09 06:59:52;;;;;;;33.67;9.88;;;;;;;5.61;100.00;100853.50;5074892;27;20036;-73
2023/12/09 07:02:18;;;;;;;36.90;11.25;;;;;;;5.66;100.00;100848.88;5110705;27;20470;-74
2023/12/09 07:04:43;;;;;;;47.08;11.52;;;;;;;5.68;100.00;100844.38;5108373;27;20032;-73
2023/12/09 07:07:09;;;;;;;33.38;10.07;;;;;;;5.71;100.00;100831.00;5111338;27;20036;-74
2023/12/09 07:09:38;;;;;;;41.83;10.52;;;;;;;5.71;100.00;100823.06;5093394;27;20086;-73
2023/12/09 07:12:05;;;;;;;41.15;11.05;;;;;;;5.81;100.00;100818.25;5110774;27;20039;-75
2023/12/09 07:14:31;;;;;;;42.63;10.57;;;;;;;5.82;100.00;100799.66;5078280;27;20113;-73
2023/12/09 07:16:59;;;;;;;48.85;9.65;;;;;;;5.77;100.00;100795.47;5111993;27;20032;-74
2023/12/09 07:19:25;;;;;;;47.25;11.02;;;;;;;5.80;100.00;100801.50;5092363;27;20040;-75
2023/12/09 07:21:56;;;;;;;39.53;9.57;;;;;;;5.88;100.00;100785.31;5106554;27;20067;-74
2023/12/09 07:24:25;;;;;;;38.67;9.80;;;;;;;5.89;100.00;100776.44;5097246;27;20039;-73
2023/12/09 07:26:50;;;;;;;37.60;10.35;;;;;;;5.89;100.00;100779.06;5110032;27;20039;-74
2023/12/09 07:29:16;;;;;;;33.38;9.18;;;;;;;5.93;100.00;100770.13;5094935;27;20043;-74
2023/12/09 07:31:41;;;;;;;42.22;10.48;;;;;;;5.96;100.00;100760.22;5109798;27;20544;-74
2023/12/09 07:34:16;;;;;;;43.33;10.25;;;;;;;5.95;100.00;100753.22;5091739;28;20090;-73
2023/12/09 07:36:44;;;;;;;37.95;9.27;;;;;;;5.93;100.00;100741.00;5103339;27;20039;-75
2023/12/09 07:39:13;;;;;;;41.92;8.80;;;;;;;5.99;100.00;100734.56;5092600;27;20056;-73
2023/12/09 07:41:41;;;;;;;43.95;8.88;;;;;;;5.97;100.00;100732.84;5107102;27;20243;-75
2023/12/09 07:44:07;;;;;;;36.40;9.60;;;;;;;5.89;100.00;100729.66;5111955;27;20040;-73
2023/12/09 07:46:38;;;;;;;35.67;8.75;;;;;;;5.98;100.00;100720.47;5095922;27;20031;-74
2023/12/09 07:49:04;;;;;;;44.78;9.88;;;;;;;6.02;100.00;100721.16;5110797;27;20036;-75
2023/12/09 07:51:29;;;;;;;44.03;8.27;;;;;;;6.00;100.00;100723.03;5092462;27;20031;-74
2023/12/09 07:53:55;;;;;;;36.88;9.25;;;;;;;5.99;100.00;100716.03;5096345;27;20040;-73
2023/12/09 07:56:21;;;;;;;36.60;8.07;;;;;;;6.03;100.00;100707.03;5079691;27;20043;-74
2023/12/09 07:58:49;;;;;;;40.65;7.85;;;;;;;6.06;100.00;100707.72;5102750;27;20070;-73
2023/12/09 08:01:15;;;;;;;39.88;9.02;;;;;;;6.09;100.00;100702.28;5080666;27;20036;-75
2023/12/09 08:03:40;;;;;;;28.38;6.93;;;;;;;6.08;100.00;100703.25;5109127;27;20032;-74
2023/12/09 08:06:06;;;;;;;36.67;8.43;;;;;;;6.11;100.00;100692.47;5073527;27;20065;-75
2023/12/09 08:08:35;;;;;;;18.77;6.65;;;;;;;6.12;100.00;100698.63;5086439;27;20031;-74
2023/12/09 08:11:07;;;;;;;34.75;6.28;;;;;;;6.18;100.00;100693.06;5106843;27;20027;-74
2023/12/09 08:13:33;;;;;;;27.42;6.45;;;;;;;6.20;100.00;100694.69;5089218;27;20050;-74
2023/12/09 08:15:59;;;;;;;37.13;7.35;;;;;;;6.21;100.00;100690.25;5109541;27;20063;-74
2023/12/09 08:18:26;;;;;;;36.22;7.10;;;;;;;6.18;100.00;100685.13;5088526;27;20539;-74
2023/12/09 08:20:52;;;;;;;26.60;6.00;;;;;;;6.23;100.00;100686.63;5061432;27;20748;-74
2023/12/09 08:23:18;;;;;;;32.05;7.68;;;;;;;6.22;100.00;100684.91;5106043;27;20036;-74
2023/12/09 08:25:44;;;;;;;30.00;6.68;;;;;;;6.26;100.00;100680.31;5088329;27;20024;-73
2023/12/09 08:28:10;;;;;;;33.58;7.50;;;;;;;6.32;100.00;100674.72;5082431;27;20612;-73
2023/12/09 08:30:36;;;;;;;24.13;6.63;;;;;;;6.31;100.00;100664.19;5088609;27;20078;-74
2023/12/09 08:33:05;;;;;;;22.33;6.07;;;;;;;6.39;100.00;100668.19;5103651;27;20481;-74
2023/12/09 08:35:31;;;;;;;20.50;6.22;;;;;;;6.32;100.00;100668.56;5099084;27;20250;-73
2023/12/09 08:37:58;;;;;;;31.38;7.32;;;;;;;6.40;100.00;100664.63;5071943;27;20032;-71
2023/12/09 08:40:24;;;;;;;27.25;6.22;;;;;;;6.43;100.00;100656.53;5089490;27;20315;-71
2023/12/09 08:42:49;;;;;;;33.40;6.70;;;;;;;6.48;100.00;100645.72;5107587;27;20040;-74
2023/12/09 08:45:16;;;;;;;23.95;5.75;;;;;;;6.51;100.00;100642.88;5099901;27;20027;-74
2023/12/09 08:47:42;;;;;;;25.52;7.03;;;;;;;6.57;100.00;100637.28;5104864;27;20036;-74
2023/12/09 08:50:08;;;;;;;32.00;7.78;;;;;;;6.56;100.00;100629.41;5091159;27;20051;-74
2023/12/09 08:52:37;;;;;;;22.95;6.13;;;;;;;6.60;100.00;100625.69;5108309;27;20109;-74
2023/12/09 08:55:04;;;;;;;31.58;7.43;;;;;;;6.70;100.00;100611.88;5091699;27;20032;-74
2023/12/09 08:57:31;;;;;;;25.35;6.55;;;;;;;6.72;100.00;100601.19;5101294;27;20118;-74
2023/12/09 08:59:57;;;;;;;27.88;6.18;;;;;;;6.79;100.00;100592.03;5099116;27;20741;-75
2023/12/09 09:02:24;;;;;;;33.05;6.80;;;;;;;6.87;100.00;100599.56;5102158;27;20115;-74
2023/12/09 09:04:49;;;;;;;21.40;5.80;;;;;;;6.92;100.00;100594.88;5104785;27;20032;-73
2023/12/09 09:07:15;;;;;;;26.20;5.93;;;;;;;6.94;100.00;100591.22;5089150;27;20105;-74
2023/12/09 09:09:41;;;;;;;24.00;6.32;;;;;;;6.89;100.00;100579.16;5104156;27;20062;-73
2023/12/09 09:12:07;;;;;;;24.95;6.20;;;;;;;7.05;100.00;100580.06;5098519;27;20109;-73
2023/12/09 09:14:36;;;;;;;28.52;6.75;;;;;;;7.01;100.00;100573.19;5089384;27;20066;-74
2023/12/09 09:17:12;;;;;;;26.42;6.05;;;;;;;6.91;100.00;100556.06;5103358;27;20031;-74
2023/12/09 09:19:37;;;;;;;19.55;5.95;;;;;;;6.94;100.00;100547.97;5094766;27;20098;-74
2023/12/09 09:22:04;;;;;;;18.27;4.40;;;;;;;7.04;100.00;100553.63;5103820;27;20043;-74
2023/12/09 09:24:29;;;;;;;21.90;6.13;;;;;;;7.06;100.00;100536.69;5100502;27;20032;-74
2023/12/09 09:26:55;;;;;;;27.33;5.07;;;;;;;7.13;100.00;100538.09;5103795;27;20054;-74
2023/12/09 09:29:21;;;;;;;22.70;5.00;;;;;;;7.15;100.00;100524.75;5098321;27;20036;-73
2023/12/09 09:31:47;;;;;;;29.35;5.75;;;;;;;7.25;100.00;100526.78;5091373;27;20624;-75
2023/12/09 09:34:13;;;;;;;22.88;5.38;;;;;;;7.20;100.00;100522.69;5099980;27;20028;-74
2023/12/09 09:36:38;;;;;;;23.90;6.30;;;;;;;7.36;100.00;100509.44;5103009;27;20039;-74
2023/12/09 09:39:06;;;;;;;15.45;4.22;;;;;;;7.38;100.00;100495.16;5077313;27;20560;-74
2023/12/09 09:42:10;;;;;;;20.85;5.55;;;;;;;7.37;100.00;100482.81;5107822;27;20116;-74
2023/12/09 09:44:43;;;;;;;18.67;5.28;;;;;;;7.34;100.00;100492.75;5062698;27;20040;-74
2023/12/09 09:47:10;;;;;;;24.38;5.38;;;;;;;7.32;100.00;100476.91;5100645;27;20222;-74
2023/12/09 09:49:39;;;;;;;18.85;5.22;;;;;;;7.34;100.00;100469.75;5100639;27;20086;-74
2023/12/09 09:52:09;;;;;;;21.42;5.05;;;;;;;7.42;100.00;100472.81;5090045;27;20097;-74
2023/12/09 09:54:39;;;;;;;24.73;6.03;;;;;;;7.41;100.00;100462.28;5089438;27;20111;-74
2023/12/09 09:57:07;;;;;;;23.90;5.65;;;;;;;7.33;100.00;100453.91;5097571;27;20032;-74
2023/12/09 09:59:37;;;;;;;23.98;5.75;;;;;;;7.36;100.00;100445.78;5109335;27;20108;-73
2023/12/09 10:02:16;;;;;;;17.73;5.00;;;;;;;7.29;100.00;100434.66;5107085;27;21166;-74
2023/12/09 10:04:41;;;;;;;18.05;5.80;;;;;;;7.24;100.00;100426.13;5098915;27;20156;-74
2023/12/09 10:07:07;;;;;;;26.98;5.35;;;;;;;7.26;100.00;100429.53;5112188;27;20035;-75
2023/12/09 10:09:41;;;;;;;20.73;5.72;;;;;;;7.25;100.00;100415.41;5102847;27;20044;-74
2023/12/09 10:12:07;;;;;;;23.38;5.50;;;;;;;7.30;100.00;100409.84;5104473;27;20173;-74
2023/12/09 10:14:32;;;;;;;19.27;5.10;;;;;;;7.33;100.00;100399.09;5100736;27;20048;-75
2023/12/09 10:16:58;;;;;;;17.58;4.80;;;;;;;7.24;100.00;100391.66;5092182;27;20044;-73
2023/12/09 10:19:25;;;;;;;21.40;5.10;;;;;;;7.47;100.00;100385.00;5110062;27;20042;-74
2023/12/09 10:21:50;;;;;;;21.77;5.07;;;;;;;7.59;100.00;100370.19;5107635;27;20024;-75
2023/12/09 10:24:16;;;;;;;17.73;4.82;;;;;;;7.54;100.00;100359.84;5103822;27;20802;-74
2023/12/09 10:26:41;;;;;;;16.33;4.63;;;;;;;7.62;100.00;100348.78;5088602;27;20039;-73
2023/12/09 10:29:07;;;;;;;15.68;5.30;;;;;;;7.69;100.00;100342.16;5102395;27;20509;-74
2023/12/09 10:31:35;;;;;;;26.17;5.35;;;;;;;7.63;100.00;100350.47;5100054;27;20032;-74
2023/12/09 10:34:12;;;;;;;14.93;4.78;;;;;;;7.66;100.00;100347.66;5089817;27;20064;-75
2023/12/09 10:36:37;;;;;;;13.68;4.25;;;;;;;7.79;100.00;100330.91;5098375;27;20046;-74
2023/12/09 10:39:18;;;;;;;19.98;5.22;;;;;;;7.84;100.00;100321.81;5104854;27;20051;-75
2023/12/09 10:41:45;;;;;;;19.75;4.70;;;;;;;7.89;100.00;100317.94;5088102;27;20123;-72
2023/12/09 10:44:11;;;;;;;25.95;4.75;;;;;;;7.94;100.00;100307.91;5105232;27;20040;-74
2023/12/09 10:46:39;;;;;;;17.00;4.30;;;;;;;7.94;100.00;100293.78;5106082;27;20032;-75
2023/12/09 10:49:07;;;;;;;18.88;5.20;;;;;;;8.08;100.00;100285.78;5105697;27;20031;-73
2023/12/09 10:51:36;;;;;;;20.75;4.60;;;;;;;8.08;100.00;100263.69;5098451;27;20040;-73
2023/12/09 10:54:05;;;;;;;18.27;4.97;;;;;;;8.07;100.00;100262.84;5085355;27;20036;-74
2023/12/09 10:56:31;;;;;;;19.13;5.13;;;;;;;8.14;100.00;100258.03;5092057;27;20036;-73
2023/12/09 10:58:57;;;;;;;24.45;5.43;;;;;;;8.10;100.00;100253.84;5085611;27;20062;-73
2023/12/09 11:01:24;;;;;;;17.48;5.30;;;;;;;8.18;100.00;100254.19;5070517;27;20040;-73
2023/12/09 11:03:49;;;;;;;20.30;4.88;;;;;;;8.18;100.00;100241.81;5091466;27;20047;-73
2023/12/09 11:06:18;;;;;;;16.15;3.83;;;;;;;8.25;100.00;100221.00;5106750;27;20023;-74
2023/12/09 11:08:44;;;;;;;16.65;5.25;;;;;;;8.37;100.00;100219.38;5080048;27;20117;-73
2023/12/09 11:11:10;;;;;;;16.65;5.25;;;;;;;8.27;100.00;100217.28;5107055;27;20057;-74
2023/12/09 11:13:36;;;;;;;18.35;5.18;;;;;;;8.24;100.00;100190.94;5099943;27;20042;-73